createdAt,value
2022-09-12T00:03:02.643Z,1.4
2022-09-12T00:23:02.429Z,1.4
2022-09-12T00:43:02.111Z,1.4
2022-09-12T01:03:01.855Z,1.6
2022-09-12T01:23:01.570Z,3.6
2022-09-12T01:43:01.325Z,6.0
2022-09-12T02:03:01.033Z,4.9
2022-09-12T02:23:00.761Z,6.2
2022-09-12T02:43:00.488Z,5.9
2022-09-12T03:03:00.420Z,6.6
2022-09-12T03:22:59.949Z,4.3
2022-09-12T03:42:59.685Z,6.0
2022-09-12T04:02:59.436Z,9.5
2022-09-12T04:22:59.136Z,10.4
2022-09-12T04:42:58.885Z,6.7
2022-09-12T05:02:58.588Z,7.9
2022-09-12T05:22:58.307Z,5.8
2022-09-12T05:42:58.038Z,8.7
2022-09-12T06:02:57.764Z,8.5
2022-09-12T06:22:57.499Z,8.5
2022-09-12T06:42:57.215Z,9.7
2022-09-12T07:02:56.962Z,14.1
2022-09-12T07:22:56.741Z,14.5
2022-09-12T07:42:56.405Z,14.6
2022-09-12T08:02:56.164Z,13.8
2022-09-12T08:27:22.392Z,15.7
2022-09-12T08:47:22.177Z,14.9
2022-09-12T09:07:21.838Z,19.4
2022-09-12T09:27:39.190Z,13.4
2022-09-12T09:47:21.268Z,16.2
2022-09-12T10:07:21.018Z,15.0
2022-09-12T10:27:20.734Z,11.4
2022-09-12T10:47:20.452Z,15.3
2022-09-12T11:07:20.293Z,13.6
2022-09-12T11:27:19.956Z,13.2
2022-09-12T11:47:19.630Z,9.2
2022-09-12T12:07:19.358Z,8.1
2022-09-12T12:27:19.134Z,7.5
2022-09-12T12:47:18.837Z,9.3
2022-09-12T13:07:18.558Z,6.8
2022-09-12T13:27:18.278Z,5.6
2022-09-12T13:47:18.027Z,3.1
2022-09-12T14:07:17.765Z,4.0
2022-09-12T14:27:17.533Z,3.2
2022-09-12T14:47:17.228Z,2.5
2022-09-12T15:07:16.977Z,2.8
2022-09-12T15:27:16.652Z,1.2
2022-09-12T15:47:16.550Z,1.0
2022-09-12T16:07:16.097Z,3.1
2022-09-12T16:27:16.047Z,2.7
2022-09-12T16:47:15.565Z,2.5
2022-09-12T17:07:15.396Z,1.0
2022-09-12T17:32:06.973Z,3.8
2022-09-12T17:52:06.664Z,2.9
2022-09-12T18:12:06.395Z,3.4
2022-09-12T18:32:06.120Z,3.6
2022-09-12T18:52:05.919Z,2.8
2022-09-12T19:12:05.663Z,3.2
2022-09-12T19:32:05.318Z,4.1
2022-09-12T19:52:05.169Z,5.0
2022-09-12T20:12:04.967Z,5.3
2022-09-12T20:32:04.680Z,8.4
2022-09-12T20:52:04.219Z,5.4
2022-09-12T21:12:04.050Z,4.9
2022-09-12T21:32:05.806Z,4.3
2022-09-12T21:52:03.398Z,4.3
2022-09-12T22:12:03.118Z,4.0
2022-09-12T22:32:02.844Z,4.6
2022-09-12T22:52:02.593Z,5.5
2022-09-12T23:12:02.364Z,4.6
2022-09-12T23:32:02.070Z,4.2
2022-09-12T23:52:01.819Z,3.5
